sensor_id;sensor_type;location;lat;lon;timestamp;temperature;humidity
31307;DHT22;17935;51.120;13.132;2024-02-21T00:00:34;7.70;99.90
31307;DHT22;17935;51.120;13.132;2024-02-21T00:02:59;7.60;99.90
31307;DHT22;17935;51.120;13.132;2024-02-21T00:05:27;7.60;99.90
31307;DHT22;17935;51.120;13.132;2024-02-21T00:07:53;7.60;99.90
31307;DHT22;17935;51.120;13.132;2024-02-21T00:10:18;7.60;99.90
31307;DHT22;17935;51.120;13.132;2024-02-21T00:12:43;7.60;99.90
31307;DHT22;17935;51.120;13.132;2024-02-21T00:15:09;7.60;99.90
31307;DHT22;17935;51.120;13.132;2024-02-21T00:17:35;7.50;99.90
31307;DHT22;17935;51.120;13.132;2024-02-21T00:20:00;7.60;99.90
31307;DHT22;17935;51.120;13.132;2024-02-21T00:22:25;7.50;99.90
31307;DHT22;17935;51.120;13.132;2024-02-21T00:24:54;7.50;99.90
31307;DHT22;17935;51.120;13.132;2024-02-21T00:27:19;7.50;99.90
31307;DHT22;17935;51.120;13.132;2024-02-21T00:29:45;7.50;99.90
31307;DHT22;17935;51.120;13.132;2024-02-21T00:32:10;7.50;99.90
31307;DHT22;17935;51.120;13.132;2024-02-21T00:34:36;7.50;99.90
31307;DHT22;17935;51.120;13.132;2024-02-21T00:37:01;7.40;99.90
31307;DHT22;17935;51.120;13.132;2024-02-21T00:39:27;7.50;99.90
31307;DHT22;17935;51.120;13.132;2024-02-21T00:41:52;7.50;99.90
31307;DHT22;17935;51.120;13.132;2024-02-21T00:44:18;7.50;99.90
31307;DHT22;17935;51.120;13.132;2024-02-21T00:46:44;7.50;99.90
31307;DHT22;17935;51.120;13.132;2024-02-21T00:49:09;7.60;99.90
31307;DHT22;17935;51.120;13.132;2024-02-21T00:51:34;7.60;99.90
31307;DHT22;17935;51.120;13.132;2024-02-21T00:54:00;7.60;99.90
31307;DHT22;17935;51.120;13.132;2024-02-21T00:56:26;7.70;99.90
31307;DHT22;17935;51.120;13.132;2024-02-21T00:58:52;7.70;99.90
31307;DHT22;17935;51.120;13.132;2024-02-21T01:01:21;7.60;99.90
31307;DHT22;17935;51.120;13.132;2024-02-21T01:03:46;7.70;99.90
31307;DHT22;17935;51.120;13.132;2024-02-21T01:06:12;7.70;99.90
31307;DHT22;17935;51.120;13.132;2024-02-21T01:08:37;7.60;99.90
31307;DHT22;17935;51.120;13.132;2024-02-21T01:11:03;7.60;99.90
31307;DHT22;17935;51.120;13.132;2024-02-21T01:13:28;7.60;99.90
31307;DHT22;17935;51.120;13.132;2024-02-21T01:15:54;7.60;99.90
31307;DHT22;17935;51.120;13.132;2024-02-21T01:18:19;7.50;99.90
31307;DHT22;17935;51.120;13.132;2024-02-21T01:20:45;7.50;99.90
31307;DHT22;17935;51.120;13.132;2024-02-21T01:23:10;7.50;99.90
31307;DHT22;17935;51.120;13.132;2024-02-21T01:25:36;7.60;99.90
31307;DHT22;17935;51.120;13.132;2024-02-21T01:28:01;7.60;99.90
31307;DHT22;17935;51.120;13.132;2024-02-21T01:30:27;7.60;99.90
31307;DHT22;17935;51.120;13.132;2024-02-21T01:32:52;7.70;99.90
31307;DHT22;17935;51.120;13.132;2024-02-21T01:35:18;7.70;99.90
31307;DHT22;17935;51.120;13.132;2024-02-21T01:37:44;7.70;99.90
31307;DHT22;17935;51.120;13.132;2024-02-21T01:40:10;7.70;99.90
31307;DHT22;17935;51.120;13.132;2024-02-21T01:42:39;7.60;99.90
31307;DHT22;17935;51.120;13.132;2024-02-21T01:45:06;7.50;99.90
31307;DHT22;17935;51.120;13.132;2024-02-21T01:47:31;7.40;99.90
31307;DHT22;17935;51.120;13.132;2024-02-21T01:49:57;7.30;99.90
31307;DHT22;17935;51.120;13.132;2024-02-21T01:52:22;7.30;99.90
31307;DHT22;17935;51.120;13.132;2024-02-21T01:54:48;7.30;99.90
31307;DHT22;17935;51.120;13.132;2024-02-21T01:57:13;7.30;99.90
31307;DHT22;17935;51.120;13.132;2024-02-21T01:59:40;7.30;99.90
31307;DHT22;17935;51.120;13.132;2024-02-21T02:02:05;7.40;99.90
31307;DHT22;17935;51.120;13.132;2024-02-21T02:04:31;7.40;99.90
31307;DHT22;17935;51.120;13.132;2024-02-21T02:06:57;7.40;99.90
31307;DHT22;17935;51.120;13.132;2024-02-21T02:09:25;7.50;99.90
31307;DHT22;17935;51.120;13.132;2024-02-21T02:11:50;7.50;99.90
31307;DHT22;17935;51.120;13.132;2024-02-21T02:14:16;7.50;99.90
31307;DHT22;17935;51.120;13.132;2024-02-21T02:16:41;7.60;99.90
31307;DHT22;17935;51.120;13.132;2024-02-21T02:19:07;7.60;99.90
31307;DHT22;17935;51.120;13.132;2024-02-21T02:21:35;7.60;99.90
31307;DHT22;17935;51.120;13.132;2024-02-21T02:24:03;7.60;99.90
31307;DHT22;17935;51.120;13.132;2024-02-21T02:26:30;7.60;99.90
31307;DHT22;17935;51.120;13.132;2024-02-21T02:28:55;7.60;99.90
31307;DHT22;17935;51.120;13.132;2024-02-21T02:31:21;7.70;99.90
31307;DHT22;17935;51.120;13.132;2024-02-21T02:33:46;7.70;99.90
31307;DHT22;17935;51.120;13.132;2024-02-21T02:36:13;7.70;99.90
31307;DHT22;17935;51.120;13.132;2024-02-21T02:38:38;7.70;99.90
31307;DHT22;17935;51.120;13.132;2024-02-21T02:41:04;7.70;99.90
31307;DHT22;17935;51.120;13.132;2024-02-21T02:43:29;7.70;99.90
31307;DHT22;17935;51.120;13.132;2024-02-21T02:45:55;7.60;99.90
31307;DHT22;17935;51.120;13.132;2024-02-21T02:48:21;7.60;99.90
31307;DHT22;17935;51.120;13.132;2024-02-21T02:50:46;7.60;99.90
31307;DHT22;17935;51.120;13.132;2024-02-21T02:53:12;7.60;99.90
31307;DHT22;17935;51.120;13.132;2024-02-21T02:55:37;7.60;99.90
31307;DHT22;17935;51.120;13.132;2024-02-21T02:58:03;7.60;99.90
31307;DHT22;17935;51.120;13.132;2024-02-21T03:00:28;7.60;99.90
31307;DHT22;17935;51.120;13.132;2024-02-21T03:02:54;7.50;99.90
31307;DHT22;17935;51.120;13.132;2024-02-21T03:05:20;7.60;99.90
31307;DHT22;17935;51.120;13.132;2024-02-21T03:07:46;7.50;99.90
31307;DHT22;17935;51.120;13.132;2024-02-21T03:10:12;7.50;99.90
31307;DHT22;17935;51.120;13.132;2024-02-21T03:12:37;7.60;99.90
31307;DHT22;17935;51.120;13.132;2024-02-21T03:15:03;7.50;99.90
31307;DHT22;17935;51.120;13.132;2024-02-21T03:17:29;7.60;99.90
31307;DHT22;17935;51.120;13.132;2024-02-21T03:19:55;7.50;99.90
31307;DHT22;17935;51.120;13.132;2024-02-21T03:22:21;7.60;99.90
31307;DHT22;17935;51.120;13.132;2024-02-21T03:24:46;7.60;99.90
31307;DHT22;17935;51.120;13.132;2024-02-21T03:27:12;7.60;99.90
31307;DHT22;17935;51.120;13.132;2024-02-21T03:29:37;7.60;99.90
31307;DHT22;17935;51.120;13.132;2024-02-21T03:32:03;7.60;99.90
31307;DHT22;17935;51.120;13.132;2024-02-21T03:34:28;7.60;99.90
31307;DHT22;17935;51.120;13.132;2024-02-21T03:36:54;7.60;99.90
31307;DHT22;17935;51.120;13.132;2024-02-21T03:39:19;7.60;99.90
31307;DHT22;17935;51.120;13.132;2024-02-21T03:41:46;7.60;99.90
31307;DHT22;17935;51.120;13.132;2024-02-21T03:44:12;7.60;99.90
31307;DHT22;17935;51.120;13.132;2024-02-21T03:46:37;7.60;99.90
31307;DHT22;17935;51.120;13.132;2024-02-21T03:49:02;7.60;99.90
31307;DHT22;17935;51.120;13.132;2024-02-21T03:51:28;7.60;99.90
31307;DHT22;17935;51.120;13.132;2024-02-21T03:53:53;7.60;99.90
31307;DHT22;17935;51.120;13.132;2024-02-21T03:56:19;7.60;99.90
31307;DHT22;17935;51.120;13.132;2024-02-21T03:58:44;7.60;99.90
31307;DHT22;17935;51.120;13.132;2024-02-21T04:01:10;7.70;99.90
31307;DHT22;17935;51.120;13.132;2024-02-21T04:03:35;7.60;99.90
31307;DHT22;17935;51.120;13.132;2024-02-21T04:06:01;7.60;99.90
31307;DHT22;17935;51.120;13.132;2024-02-21T04:08:26;7.60;99.90
31307;DHT22;17935;51.120;13.132;2024-02-21T04:10:51;7.50;99.90
31307;DHT22;17935;51.120;13.132;2024-02-21T04:13:17;7.50;99.90
31307;DHT22;17935;51.120;13.132;2024-02-21T04:15:42;7.60;99.90
31307;DHT22;17935;51.120;13.132;2024-02-21T04:18:08;7.60;99.90
31307;DHT22;17935;51.120;13.132;2024-02-21T04:20:34;7.70;99.90
31307;DHT22;17935;51.120;13.132;2024-02-21T04:22:59;7.70;99.90
31307;DHT22;17935;51.120;13.132;2024-02-21T04:25:25;7.80;99.90
31307;DHT22;17935;51.120;13.132;2024-02-21T04:27:50;7.80;99.90
31307;DHT22;17935;51.120;13.132;2024-02-21T04:30:16;7.80;99.90
31307;DHT22;17935;51.120;13.132;2024-02-21T04:32:41;7.80;99.90
31307;DHT22;17935;51.120;13.132;2024-02-21T04:35:07;7.80;99.90
31307;DHT22;17935;51.120;13.132;2024-02-21T04:37:33;7.80;99.90
31307;DHT22;17935;51.120;13.132;2024-02-21T04:39:58;7.70;99.90
31307;DHT22;17935;51.120;13.132;2024-02-21T04:42:24;7.70;99.90
31307;DHT22;17935;51.120;13.132;2024-02-21T04:44:49;7.70;99.90
31307;DHT22;17935;51.120;13.132;2024-02-21T04:47:15;7.70;99.90
31307;DHT22;17935;51.120;13.132;2024-02-21T04:49:40;7.70;99.90
31307;DHT22;17935;51.120;13.132;2024-02-21T04:52:05;7.70;99.90
31307;DHT22;17935;51.120;13.132;2024-02-21T04:54:31;7.80;99.90
31307;DHT22;17935;51.120;13.132;2024-02-21T04:56:56;7.80;99.90
31307;DHT22;17935;51.120;13.132;2024-02-21T04:59:22;7.80;99.90
31307;DHT22;17935;51.120;13.132;2024-02-21T05:01:47;7.80;99.90
31307;DHT22;17935;51.120;13.132;2024-02-21T05:04:13;7.80;99.90
31307;DHT22;17935;51.120;13.132;2024-02-21T05:06:41;7.80;99.90
31307;DHT22;17935;51.120;13.132;2024-02-21T05:09:07;7.80;99.90
31307;DHT22;17935;51.120;13.132;2024-02-21T05:11:34;7.80;99.90
31307;DHT22;17935;51.120;13.132;2024-02-21T05:13:59;7.80;99.90
31307;DHT22;17935;51.120;13.132;2024-02-21T05:16:25;7.80;99.90
31307;DHT22;17935;51.120;13.132;2024-02-21T05:18:50;7.80;99.90
31307;DHT22;17935;51.120;13.132;2024-02-21T05:21:16;7.80;99.90
31307;DHT22;17935;51.120;13.132;2024-02-21T05:23:41;7.80;99.90
31307;DHT22;17935;51.120;13.132;2024-02-21T05:26:07;7.80;99.90
31307;DHT22;17935;51.120;13.132;2024-02-21T05:28:33;7.80;99.90
31307;DHT22;17935;51.120;13.132;2024-02-21T05:30:58;7.80;99.90
31307;DHT22;17935;51.120;13.132;2024-02-21T05:33:24;7.80;99.90
31307;DHT22;17935;51.120;13.132;2024-02-21T05:35:50;7.80;99.90
31307;DHT22;17935;51.120;13.132;2024-02-21T05:38:16;7.70;99.90
31307;DHT22;17935;51.120;13.132;2024-02-21T05:40:41;7.70;99.90
31307;DHT22;17935;51.120;13.132;2024-02-21T05:43:07;7.60;99.90
31307;DHT22;17935;51.120;13.132;2024-02-21T05:45:32;7.60;99.90
31307;DHT22;17935;51.120;13.132;2024-02-21T05:47:58;7.60;99.90
31307;DHT22;17935;51.120;13.132;2024-02-21T05:50:23;7.50;99.90
31307;DHT22;17935;51.120;13.132;2024-02-21T05:52:52;7.40;99.90
31307;DHT22;17935;51.120;13.132;2024-02-21T05:55:18;7.30;99.90
31307;DHT22;17935;51.120;13.132;2024-02-21T05:57:43;7.30;99.90
31307;DHT22;17935;51.120;13.132;2024-02-21T06:00:09;7.20;99.90
31307;DHT22;17935;51.120;13.132;2024-02-21T06:02:34;7.20;99.90
31307;DHT22;17935;51.120;13.132;2024-02-21T06:05:00;7.20;99.90
31307;DHT22;17935;51.120;13.132;2024-02-21T06:07:25;7.30;99.90
31307;DHT22;17935;51.120;13.132;2024-02-21T06:09:51;7.20;99.90
31307;DHT22;17935;51.120;13.132;2024-02-21T06:12:16;7.20;99.90
31307;DHT22;17935;51.120;13.132;2024-02-21T06:14:42;7.20;99.90
31307;DHT22;17935;51.120;13.132;2024-02-21T06:17:07;7.20;99.90
31307;DHT22;17935;51.120;13.132;2024-02-21T06:19:33;7.20;99.90
31307;DHT22;17935;51.120;13.132;2024-02-21T06:21:58;7.20;99.90
31307;DHT22;17935;51.120;13.132;2024-02-21T06:24:24;7.20;99.90
31307;DHT22;17935;51.120;13.132;2024-02-21T06:26:57;7.30;99.90
31307;DHT22;17935;51.120;13.132;2024-02-21T06:29:22;7.30;99.90
31307;DHT22;17935;51.120;13.132;2024-02-21T06:31:48;7.40;99.90
31307;DHT22;17935;51.120;13.132;2024-02-21T06:34:16;7.40;99.90
31307;DHT22;17935;51.120;13.132;2024-02-21T06:36:42;7.50;99.90
31307;DHT22;17935;51.120;13.132;2024-02-21T06:39:07;7.50;99.90
31307;DHT22;17935;51.120;13.132;2024-02-21T06:41:33;7.50;99.90
31307;DHT22;17935;51.120;13.132;2024-02-21T06:43:59;7.60;99.90
31307;DHT22;17935;51.120;13.132;2024-02-21T06:46:25;7.60;99.90
31307;DHT22;17935;51.120;13.132;2024-02-21T06:48:51;7.70;99.90
31307;DHT22;17935;51.120;13.132;2024-02-21T06:51:16;7.80;99.90
31307;DHT22;17935;51.120;13.132;2024-02-21T06:53:42;7.80;99.90
31307;DHT22;17935;51.120;13.132;2024-02-21T06:56:09;7.90;99.90
31307;DHT22;17935;51.120;13.132;2024-02-21T06:58:35;7.90;99.90
31307;DHT22;17935;51.120;13.132;2024-02-21T07:01:01;8.10;99.90
31307;DHT22;17935;51.120;13.132;2024-02-21T07:03:27;8.20;99.90
31307;DHT22;17935;51.120;13.132;2024-02-21T07:05:52;8.30;99.90
31307;DHT22;17935;51.120;13.132;2024-02-21T07:08:18;8.40;99.90
31307;DHT22;17935;51.120;13.132;2024-02-21T07:10:47;8.60;99.90
31307;DHT22;17935;51.120;13.132;2024-02-21T07:13:12;8.80;99.90
31307;DHT22;17935;51.120;13.132;2024-02-21T07:15:38;8.80;99.90
31307;DHT22;17935;51.120;13.132;2024-02-21T07:18:04;8.80;99.90
31307;DHT22;17935;51.120;13.132;2024-02-21T07:20:29;8.70;99.90
31307;DHT22;17935;51.120;13.132;2024-02-21T07:22:55;8.70;99.90
31307;DHT22;17935;51.120;13.132;2024-02-21T07:25:20;8.70;99.90
31307;DHT22;17935;51.120;13.132;2024-02-21T07:27:46;8.70;99.90
31307;DHT22;17935;51.120;13.132;2024-02-21T07:30:11;8.80;99.90
31307;DHT22;17935;51.120;13.132;2024-02-21T07:32:37;8.80;99.90
31307;DHT22;17935;51.120;13.132;2024-02-21T07:35:03;8.90;99.90
31307;DHT22;17935;51.120;13.132;2024-02-21T07:37:28;9.00;99.90
31307;DHT22;17935;51.120;13.132;2024-02-21T07:39:54;9.20;99.90
31307;DHT22;17935;51.120;13.132;2024-02-21T07:42:19;9.10;99.90
31307;DHT22;17935;51.120;13.132;2024-02-21T07:44:45;9.10;99.90
31307;DHT22;17935;51.120;13.132;2024-02-21T07:47:10;9.30;99.90
31307;DHT22;17935;51.120;13.132;2024-02-21T07:49:45;9.50;99.90
31307;DHT22;17935;51.120;13.132;2024-02-21T07:52:14;9.80;99.90
31307;DHT22;17935;51.120;13.132;2024-02-21T07:54:40;10.20;99.90
31307;DHT22;17935;51.120;13.132;2024-02-21T07:57:06;10.70;98.50
31307;DHT22;17935;51.120;13.132;2024-02-21T07:59:32;10.70;95.80
31307;DHT22;17935;51.120;13.132;2024-02-21T08:01:57;10.50;95.70
31307;DHT22;17935;51.120;13.132;2024-02-21T08:04:23;10.30;96.40
31307;DHT22;17935;51.120;13.132;2024-02-21T08:06:54;10.00;97.30
31307;DHT22;17935;51.120;13.132;2024-02-21T08:09:24;9.80;98.00
31307;DHT22;17935;51.120;13.132;2024-02-21T08:11:49;9.60;99.10
31307;DHT22;17935;51.120;13.132;2024-02-21T08:14:15;9.50;99.60
31307;DHT22;17935;51.120;13.132;2024-02-21T08:16:41;9.40;99.90
31307;DHT22;17935;51.120;13.132;2024-02-21T08:19:07;9.30;99.90
31307;DHT22;17935;51.120;13.132;2024-02-21T08:21:32;9.20;99.90
31307;DHT22;17935;51.120;13.132;2024-02-21T08:23:58;9.20;99.90
31307;DHT22;17935;51.120;13.132;2024-02-21T08:26:23;9.10;99.90
31307;DHT22;17935;51.120;13.132;2024-02-21T08:28:49;9.10;99.90
31307;DHT22;17935;51.120;13.132;2024-02-21T08:31:19;9.10;99.90
31307;DHT22;17935;51.120;13.132;2024-02-21T08:33:45;9.20;99.90
31307;DHT22;17935;51.120;13.132;2024-02-21T08:36:17;9.20;99.90
31307;DHT22;17935;51.120;13.132;2024-02-21T08:38:42;9.10;99.90
31307;DHT22;17935;51.120;13.132;2024-02-21T08:41:07;9.10;99.90
31307;DHT22;17935;51.120;13.132;2024-02-21T08:43:33;9.20;99.90
31307;DHT22;17935;51.120;13.132;2024-02-21T08:46:00;9.40;99.90
31307;DHT22;17935;51.120;13.132;2024-02-21T08:48:25;9.60;99.90
31307;DHT22;17935;51.120;13.132;2024-02-21T08:50:51;9.80;99.90
31307;DHT22;17935;51.120;13.132;2024-02-21T08:53:16;9.90;99.50
31307;DHT22;17935;51.120;13.132;2024-02-21T08:55:42;9.90;99.50
31307;DHT22;17935;51.120;13.132;2024-02-21T08:58:09;9.90;98.90
31307;DHT22;17935;51.120;13.132;2024-02-21T09:00:35;9.70;99.10
31307;DHT22;17935;51.120;13.132;2024-02-21T09:03:00;9.70;98.90
31307;DHT22;17935;51.120;13.132;2024-02-21T09:05:26;9.60;99.20
31307;DHT22;17935;51.120;13.132;2024-02-21T09:07:51;9.70;99.40
31307;DHT22;17935;51.120;13.132;2024-02-21T09:10:17;9.70;99.00
31307;DHT22;17935;51.120;13.132;2024-02-21T09:12:45;9.80;98.50
31307;DHT22;17935;51.120;13.132;2024-02-21T09:15:10;9.80;98.20
31307;DHT22;17935;51.120;13.132;2024-02-21T09:17:36;9.70;98.20
31307;DHT22;17935;51.120;13.132;2024-02-21T09:20:01;9.70;98.30
31307;DHT22;17935;51.120;13.132;2024-02-21T09:22:28;9.60;98.40
31307;DHT22;17935;51.120;13.132;2024-02-21T09:25:00;9.60;98.80
31307;DHT22;17935;51.120;13.132;2024-02-21T09:27:25;9.50;99.00
31307;DHT22;17935;51.120;13.132;2024-02-21T09:29:51;9.60;98.90
31307;DHT22;17935;51.120;13.132;2024-02-21T09:32:17;9.70;98.60
31307;DHT22;17935;51.120;13.132;2024-02-21T09:34:42;9.80;98.30
31307;DHT22;17935;51.120;13.132;2024-02-21T09:37:08;9.90;98.10
31307;DHT22;17935;51.120;13.132;2024-02-21T09:39:33;10.00;97.50
31307;DHT22;17935;51.120;13.132;2024-02-21T09:42:01;10.10;96.90
31307;DHT22;17935;51.120;13.132;2024-02-21T09:44:30;10.30;96.40
31307;DHT22;17935;51.120;13.132;2024-02-21T09:47:10;10.40;95.80
31307;DHT22;17935;51.120;13.132;2024-02-21T09:49:38;10.50;95.60
31307;DHT22;17935;51.120;13.132;2024-02-21T09:52:05;10.50;95.00
31307;DHT22;17935;51.120;13.132;2024-02-21T09:54:34;10.50;95.00
31307;DHT22;17935;51.120;13.132;2024-02-21T09:57:00;10.60;94.60
31307;DHT22;17935;51.120;13.132;2024-02-21T09:59:26;10.60;94.50
31307;DHT22;17935;51.120;13.132;2024-02-21T10:01:52;10.80;94.20
31307;DHT22;17935;51.120;13.132;2024-02-21T10:04:19;10.80;92.70
31307;DHT22;17935;51.120;13.132;2024-02-21T10:06:44;10.70;92.80
31307;DHT22;17935;51.120;13.132;2024-02-21T10:09:19;10.90;92.60
31307;DHT22;17935;51.120;13.132;2024-02-21T10:11:45;11.00;92.10
31307;DHT22;17935;51.120;13.132;2024-02-21T10:14:10;10.90;91.80
31307;DHT22;17935;51.120;13.132;2024-02-21T10:16:36;10.90;91.90
31307;DHT22;17935;51.120;13.132;2024-02-21T10:19:02;10.90;91.90
31307;DHT22;17935;51.120;13.132;2024-02-21T10:21:28;10.90;92.00
31307;DHT22;17935;51.120;13.132;2024-02-21T10:23:54;11.00;91.60
31307;DHT22;17935;51.120;13.132;2024-02-21T10:26:20;10.90;91.40
31307;DHT22;17935;51.120;13.132;2024-02-21T10:28:46;10.80;91.60
31307;DHT22;17935;51.120;13.132;2024-02-21T10:31:22;10.90;91.70
31307;DHT22;17935;51.120;13.132;2024-02-21T10:34:01;11.00;91.50
31307;DHT22;17935;51.120;13.132;2024-02-21T10:36:30;11.10;91.00
31307;DHT22;17935;51.120;13.132;2024-02-21T10:38:56;11.20;91.20
31307;DHT22;17935;51.120;13.132;2024-02-21T10:41:22;11.30;91.00
31307;DHT22;17935;51.120;13.132;2024-02-21T10:43:52;11.50;90.70
31307;DHT22;17935;51.120;13.132;2024-02-21T10:46:19;11.50;90.30
31307;DHT22;17935;51.120;13.132;2024-02-21T10:48:45;11.60;90.20
31307;DHT22;17935;51.120;13.132;2024-02-21T10:51:18;11.70;90.50
31307;DHT22;17935;51.120;13.132;2024-02-21T10:54:01;11.80;89.80
31307;DHT22;17935;51.120;13.132;2024-02-21T10:58:59;12.10;88.60
31307;DHT22;17935;51.120;13.132;2024-02-21T11:01:25;12.30;88.70
31307;DHT22;17935;51.120;13.132;2024-02-21T11:03:52;12.50;86.80
31307;DHT22;17935;51.120;13.132;2024-02-21T11:06:19;12.60;86.00
31307;DHT22;17935;51.120;13.132;2024-02-21T11:08:45;12.70;86.10
31307;DHT22;17935;51.120;13.132;2024-02-21T11:11:12;12.90;85.80
31307;DHT22;17935;51.120;13.132;2024-02-21T11:13:42;13.10;85.00
31307;DHT22;17935;51.120;13.132;2024-02-21T11:16:08;13.10;84.40
31307;DHT22;17935;51.120;13.132;2024-02-21T11:18:35;13.20;83.80
31307;DHT22;17935;51.120;13.132;2024-02-21T11:21:00;13.20;83.90
31307;DHT22;17935;51.120;13.132;2024-02-21T11:23:28;13.30;83.00
31307;DHT22;17935;51.120;13.132;2024-02-21T11:26:06;13.30;82.40
31307;DHT22;17935;51.120;13.132;2024-02-21T11:28:31;13.10;82.80
31307;DHT22;17935;51.120;13.132;2024-02-21T11:31:06;13.10;83.00
31307;DHT22;17935;51.120;13.132;2024-02-21T11:33:32;13.20;83.00
31307;DHT22;17935;51.120;13.132;2024-02-21T11:35:58;13.40;82.40
31307;DHT22;17935;51.120;13.132;2024-02-21T11:38:23;13.50;81.80
31307;DHT22;17935;51.120;13.132;2024-02-21T11:40:50;13.40;81.60
31307;DHT22;17935;51.120;13.132;2024-02-21T11:43:16;13.20;82.10
31307;DHT22;17935;51.120;13.132;2024-02-21T11:45:42;13.20;81.90
31307;DHT22;17935;51.120;13.132;2024-02-21T11:48:07;13.20;81.80
31307;DHT22;17935;51.120;13.132;2024-02-21T11:50:36;13.20;81.60
31307;DHT22;17935;51.120;13.132;2024-02-21T11:53:02;13.30;81.40
31307;DHT22;17935;51.120;13.132;2024-02-21T11:55:28;13.50;80.90
31307;DHT22;17935;51.120;13.132;2024-02-21T11:57:53;13.60;81.20
31307;DHT22;17935;51.120;13.132;2024-02-21T12:00:19;13.70;80.50
31307;DHT22;17935;51.120;13.132;2024-02-21T12:02:49;13.90;80.50
31307;DHT22;17935;51.120;13.132;2024-02-21T12:05:15;14.20;79.30
31307;DHT22;17935;51.120;13.132;2024-02-21T12:07:41;14.50;78.90
31307;DHT22;17935;51.120;13.132;2024-02-21T12:10:10;14.70;77.20
31307;DHT22;17935;51.120;13.132;2024-02-21T12:12:35;14.90;77.40
31307;DHT22;17935;51.120;13.132;2024-02-21T12:15:03;15.30;77.30
31307;DHT22;17935;51.120;13.132;2024-02-21T12:17:30;15.70;75.70
31307;DHT22;17935;51.120;13.132;2024-02-21T12:19:58;15.90;74.00
31307;DHT22;17935;51.120;13.132;2024-02-21T12:22:24;15.80;73.60
31307;DHT22;17935;51.120;13.132;2024-02-21T12:24:50;15.70;73.50
31307;DHT22;17935;51.120;13.132;2024-02-21T12:27:16;15.70;73.40
31307;DHT22;17935;51.120;13.132;2024-02-21T12:29:41;15.70;73.40
31307;DHT22;17935;51.120;13.132;2024-02-21T12:32:09;15.90;72.90
31307;DHT22;17935;51.120;13.132;2024-02-21T12:34:35;15.90;72.50
31307;DHT22;17935;51.120;13.132;2024-02-21T12:37:01;15.50;73.20
31307;DHT22;17935;51.120;13.132;2024-02-21T12:39:28;15.30;73.60
31307;DHT22;17935;51.120;13.132;2024-02-21T12:41:54;15.00;74.20
31307;DHT22;17935;51.120;13.132;2024-02-21T12:44:21;14.90;75.10
31307;DHT22;17935;51.120;13.132;2024-02-21T12:46:46;15.00;75.20
31307;DHT22;17935;51.120;13.132;2024-02-21T12:49:17;14.80;74.80
31307;DHT22;17935;51.120;13.132;2024-02-21T12:51:43;14.40;75.20
31307;DHT22;17935;51.120;13.132;2024-02-21T12:54:09;14.10;76.30
31307;DHT22;17935;51.120;13.132;2024-02-21T12:56:36;13.80;77.70
31307;DHT22;17935;51.120;13.132;2024-02-21T12:59:02;13.50;78.60
31307;DHT22;17935;51.120;13.132;2024-02-21T13:01:27;13.30;79.20
31307;DHT22;17935;51.120;13.132;2024-02-21T13:03:53;13.20;79.60
31307;DHT22;17935;51.120;13.132;2024-02-21T13:06:22;13.10;79.90
31307;DHT22;17935;51.120;13.132;2024-02-21T13:08:53;13.00;80.00
31307;DHT22;17935;51.120;13.132;2024-02-21T13:11:19;12.90;80.40
31307;DHT22;17935;51.120;13.132;2024-02-21T13:13:45;12.90;80.40
31307;DHT22;17935;51.120;13.132;2024-02-21T13:16:16;13.00;80.80
31307;DHT22;17935;51.120;13.132;2024-02-21T13:18:48;13.00;81.10
31307;DHT22;17935;51.120;13.132;2024-02-21T13:21:13;12.90;79.50
31307;DHT22;17935;51.120;13.132;2024-02-21T13:23:39;12.80;79.00
31307;DHT22;17935;51.120;13.132;2024-02-21T13:26:09;12.70;78.20
31307;DHT22;17935;51.120;13.132;2024-02-21T13:28:35;12.60;78.40
31307;DHT22;17935;51.120;13.132;2024-02-21T13:31:00;12.60;78.80
31307;DHT22;17935;51.120;13.132;2024-02-21T13:33:29;12.70;79.40
31307;DHT22;17935;51.120;13.132;2024-02-21T13:35:54;12.90;78.70
31307;DHT22;17935;51.120;13.132;2024-02-21T13:38:20;12.90;78.30
31307;DHT22;17935;51.120;13.132;2024-02-21T13:40:46;13.00;78.40
31307;DHT22;17935;51.120;13.132;2024-02-21T13:43:11;13.00;78.10
31307;DHT22;17935;51.120;13.132;2024-02-21T13:45:37;13.00;77.80
31307;DHT22;17935;51.120;13.132;2024-02-21T13:48:03;12.90;77.90
31307;DHT22;17935;51.120;13.132;2024-02-21T13:50:31;12.90;76.50
31307;DHT22;17935;51.120;13.132;2024-02-21T13:52:57;12.80;76.70
31307;DHT22;17935;51.120;13.132;2024-02-21T13:55:24;12.80;77.00
31307;DHT22;17935;51.120;13.132;2024-02-21T13:57:53;12.80;76.60
31307;DHT22;17935;51.120;13.132;2024-02-21T14:00:19;12.90;76.20
31307;DHT22;17935;51.120;13.132;2024-02-21T14:02:45;12.90;74.60
31307;DHT22;17935;51.120;13.132;2024-02-21T14:05:11;13.00;74.80
31307;DHT22;17935;51.120;13.132;2024-02-21T14:07:37;13.00;74.00
31307;DHT22;17935;51.120;13.132;2024-02-21T14:10:02;13.10;74.20
31307;DHT22;17935;51.120;13.132;2024-02-21T14:12:29;13.30;73.80
31307;DHT22;17935;51.120;13.132;2024-02-21T14:14:54;13.30;73.10
31307;DHT22;17935;51.120;13.132;2024-02-21T14:17:22;13.30;73.10
31307;DHT22;17935;51.120;13.132;2024-02-21T14:19:47;13.30;73.10
31307;DHT22;17935;51.120;13.132;2024-02-21T14:22:13;13.30;72.90
31307;DHT22;17935;51.120;13.132;2024-02-21T14:24:38;13.20;73.20
31307;DHT22;17935;51.120;13.132;2024-02-21T14:27:04;13.20;72.80
31307;DHT22;17935;51.120;13.132;2024-02-21T14:29:29;13.10;73.20
31307;DHT22;17935;51.120;13.132;2024-02-21T14:31:55;13.00;73.20
31307;DHT22;17935;51.120;13.132;2024-02-21T14:34:20;12.90;73.10
31307;DHT22;17935;51.120;13.132;2024-02-21T14:36:46;12.90;73.20
31307;DHT22;17935;51.120;13.132;2024-02-21T14:39:11;12.80;73.50
31307;DHT22;17935;51.120;13.132;2024-02-21T14:41:37;12.60;73.60
31307;DHT22;17935;51.120;13.132;2024-02-21T14:44:04;12.60;74.00
31307;DHT22;17935;51.120;13.132;2024-02-21T14:46:30;12.50;74.60
31307;DHT22;17935;51.120;13.132;2024-02-21T14:48:56;12.50;74.00
31307;DHT22;17935;51.120;13.132;2024-02-21T14:51:21;12.50;74.50
31307;DHT22;17935;51.120;13.132;2024-02-21T14:53:52;12.50;74.60
31307;DHT22;17935;51.120;13.132;2024-02-21T14:56:23;12.50;74.50
31307;DHT22;17935;51.120;13.132;2024-02-21T14:58:49;12.50;74.60
31307;DHT22;17935;51.120;13.132;2024-02-21T15:01:15;12.50;74.40
31307;DHT22;17935;51.120;13.132;2024-02-21T15:03:41;12.40;74.50
31307;DHT22;17935;51.120;13.132;2024-02-21T15:06:08;12.30;75.00
31307;DHT22;17935;51.120;13.132;2024-02-21T15:08:36;12.30;75.30
31307;DHT22;17935;51.120;13.132;2024-02-21T15:11:02;12.10;75.40
31307;DHT22;17935;51.120;13.132;2024-02-21T15:13:31;12.00;75.70
31307;DHT22;17935;51.120;13.132;2024-02-21T15:16:02;12.00;76.10
31307;DHT22;17935;51.120;13.132;2024-02-21T15:18:27;11.90;76.50
31307;DHT22;17935;51.120;13.132;2024-02-21T15:20:58;11.70;76.80